sensor_id;sensor_type;location;lat;lon;timestamp;P1;durP1;ratioP1;P2;durP2;ratioP2
11016;SDS011;54687;50.800;6.772;2023-08-21T00:00:40;6.28;;;5.32;;
11016;SDS011;54687;50.800;6.772;2023-08-21T00:03:06;6.25;;;4.55;;
11016;SDS011;54687;50.800;6.772;2023-08-21T00:05:33;6.60;;;5.40;;
11016;SDS011;54687;50.800;6.772;2023-08-21T00:07:59;5.95;;;4.97;;
11016;SDS011;54687;50.800;6.772;2023-08-21T00:10:26;5.10;;;4.57;;
11016;SDS011;54687;50.800;6.772;2023-08-21T00:12:53;5.60;;;5.00;;
11016;SDS011;54687;50.800;6.772;2023-08-21T00:15:21;5.55;;;4.85;;
11016;SDS011;54687;50.800;6.772;2023-08-21T00:17:47;8.20;;;4.93;;
11016;SDS011;54687;50.800;6.772;2023-08-21T00:20:14;8.00;;;5.22;;
11016;SDS011;54687;50.800;6.772;2023-08-21T00:22:43;5.90;;;5.13;;
11016;SDS011;54687;50.800;6.772;2023-08-21T00:25:12;5.50;;;4.90;;
11016;SDS011;54687;50.800;6.772;2023-08-21T00:27:40;6.22;;;4.90;;
11016;SDS011;54687;50.800;6.772;2023-08-21T00:30:10;7.13;;;5.25;;
11016;SDS011;54687;50.800;6.772;2023-08-21T00:32:44;6.60;;;5.97;;
11016;SDS011;54687;50.800;6.772;2023-08-21T00:35:13;6.32;;;5.75;;
11016;SDS011;54687;50.800;6.772;2023-08-21T00:37:40;6.18;;;5.32;;
11016;SDS011;54687;50.800;6.772;2023-08-21T00:40:10;6.93;;;5.30;;
11016;SDS011;54687;50.800;6.772;2023-08-21T00:42:39;5.88;;;5.38;;
11016;SDS011;54687;50.800;6.772;2023-08-21T00:45:08;6.05;;;5.45;;
11016;SDS011;54687;50.800;6.772;2023-08-21T00:47:36;6.90;;;5.93;;
11016;SDS011;54687;50.800;6.772;2023-08-21T00:50:05;7.63;;;5.68;;
11016;SDS011;54687;50.800;6.772;2023-08-21T00:52:34;6.57;;;5.13;;
11016;SDS011;54687;50.800;6.772;2023-08-21T00:55:02;6.03;;;5.43;;
11016;SDS011;54687;50.800;6.772;2023-08-21T00:57:29;6.38;;;4.88;;
11016;SDS011;54687;50.800;6.772;2023-08-21T00:59:56;5.78;;;5.13;;
11016;SDS011;54687;50.800;6.772;2023-08-21T01:02:22;5.88;;;5.07;;
11016;SDS011;54687;50.800;6.772;2023-08-21T01:04:49;5.95;;;5.38;;
11016;SDS011;54687;50.800;6.772;2023-08-21T01:07:17;5.88;;;5.28;;
11016;SDS011;54687;50.800;6.772;2023-08-21T01:09:45;5.72;;;5.22;;
11016;SDS011;54687;50.800;6.772;2023-08-21T01:12:20;5.88;;;5.22;;
11016;SDS011;54687;50.800;6.772;2023-08-21T01:14:54;6.45;;;5.07;;
11016;SDS011;54687;50.800;6.772;2023-08-21T01:17:25;6.25;;;5.30;;
11016;SDS011;54687;50.800;6.772;2023-08-21T01:19:54;8.02;;;5.57;;
11016;SDS011;54687;50.800;6.772;2023-08-21T01:22:26;6.63;;;5.38;;
11016;SDS011;54687;50.800;6.772;2023-08-21T01:24:54;6.05;;;5.45;;
11016;SDS011;54687;50.800;6.772;2023-08-21T01:27:21;6.07;;;4.90;;
11016;SDS011;54687;50.800;6.772;2023-08-21T01:29:48;7.57;;;5.47;;
11016;SDS011;54687;50.800;6.772;2023-08-21T01:32:18;5.72;;;5.15;;
11016;SDS011;54687;50.800;6.772;2023-08-21T01:34:49;5.25;;;4.75;;
11016;SDS011;54687;50.800;6.772;2023-08-21T01:37:18;6.30;;;4.68;;
11016;SDS011;54687;50.800;6.772;2023-08-21T01:39:45;9.90;;;5.15;;
11016;SDS011;54687;50.800;6.772;2023-08-21T01:42:13;7.95;;;5.47;;
11016;SDS011;54687;50.800;6.772;2023-08-21T01:44:40;6.82;;;5.30;;
11016;SDS011;54687;50.800;6.772;2023-08-21T01:47:07;5.78;;;5.20;;
11016;SDS011;54687;50.800;6.772;2023-08-21T01:49:33;6.03;;;5.43;;
11016;SDS011;54687;50.800;6.772;2023-08-21T01:52:00;8.52;;;5.80;;
11016;SDS011;54687;50.800;6.772;2023-08-21T01:54:26;8.65;;;5.30;;
11016;SDS011;54687;50.800;6.772;2023-08-21T01:56:53;6.93;;;5.75;;
11016;SDS011;54687;50.800;6.772;2023-08-21T01:59:21;5.45;;;4.95;;
11016;SDS011;54687;50.800;6.772;2023-08-21T02:01:49;6.15;;;5.55;;
11016;SDS011;54687;50.800;6.772;2023-08-21T02:04:16;7.60;;;5.47;;
11016;SDS011;54687;50.800;6.772;2023-08-21T02:06:43;6.20;;;5.22;;
11016;SDS011;54687;50.800;6.772;2023-08-21T02:09:10;6.22;;;5.55;;
11016;SDS011;54687;50.800;6.772;2023-08-21T02:11:36;6.68;;;5.63;;
11016;SDS011;54687;50.800;6.772;2023-08-21T02:14:03;7.15;;;5.53;;
11016;SDS011;54687;50.800;6.772;2023-08-21T02:16:31;5.85;;;5.35;;
11016;SDS011;54687;50.800;6.772;2023-08-21T02:18:58;5.70;;;5.20;;
11016;SDS011;54687;50.800;6.772;2023-08-21T02:21:24;6.65;;;5.35;;
11016;SDS011;54687;50.800;6.772;2023-08-21T02:23:51;6.07;;;5.45;;
11016;SDS011;54687;50.800;6.772;2023-08-21T02:26:18;6.22;;;5.63;;
11016;SDS011;54687;50.800;6.772;2023-08-21T02:28:45;6.32;;;5.35;;
11016;SDS011;54687;50.800;6.772;2023-08-21T02:31:12;6.00;;;5.43;;
11016;SDS011;54687;50.800;6.772;2023-08-21T02:33:40;5.70;;;5.13;;
11016;SDS011;54687;50.800;6.772;2023-08-21T02:36:06;5.88;;;4.97;;
11016;SDS011;54687;50.800;6.772;2023-08-21T02:38:33;6.07;;;5.43;;
11016;SDS011;54687;50.800;6.772;2023-08-21T02:41:00;7.40;;;5.22;;
11016;SDS011;54687;50.800;6.772;2023-08-21T02:43:27;5.68;;;5.18;;
11016;SDS011;54687;50.800;6.772;2023-08-21T02:45:54;6.03;;;5.43;;
11016;SDS011;54687;50.800;6.772;2023-08-21T02:48:20;8.27;;;6.03;;
11016;SDS011;54687;50.800;6.772;2023-08-21T02:50:49;6.03;;;5.53;;
11016;SDS011;54687;50.800;6.772;2023-08-21T02:53:16;5.35;;;4.82;;
11016;SDS011;54687;50.800;6.772;2023-08-21T02:55:42;6.05;;;5.55;;
11016;SDS011;54687;50.800;6.772;2023-08-21T02:58:09;6.70;;;6.03;;
11016;SDS011;54687;50.800;6.772;2023-08-21T03:00:36;6.53;;;5.90;;
11016;SDS011;54687;50.800;6.772;2023-08-21T03:03:03;8.60;;;5.88;;
11016;SDS011;54687;50.800;6.772;2023-08-21T03:05:30;6.47;;;5.50;;
11016;SDS011;54687;50.800;6.772;2023-08-21T03:07:58;7.70;;;5.68;;
11016;SDS011;54687;50.800;6.772;2023-08-21T03:10:24;6.07;;;5.43;;
11016;SDS011;54687;50.800;6.772;2023-08-21T03:12:52;5.80;;;5.22;;
11016;SDS011;54687;50.800;6.772;2023-08-21T03:15:19;6.70;;;6.00;;
11016;SDS011;54687;50.800;6.772;2023-08-21T03:17:45;7.15;;;6.00;;
11016;SDS011;54687;50.800;6.772;2023-08-21T03:20:12;6.05;;;5.45;;
11016;SDS011;54687;50.800;6.772;2023-08-21T03:22:38;7.57;;;5.78;;
11016;SDS011;54687;50.800;6.772;2023-08-21T03:25:07;6.15;;;5.65;;
11016;SDS011;54687;50.800;6.772;2023-08-21T03:27:34;6.78;;;6.13;;
11016;SDS011;54687;50.800;6.772;2023-08-21T03:30:04;7.35;;;5.68;;
11016;SDS011;54687;50.800;6.772;2023-08-21T03:32:32;6.18;;;5.68;;
11016;SDS011;54687;50.800;6.772;2023-08-21T03:34:59;8.73;;;5.93;;
11016;SDS011;54687;50.800;6.772;2023-08-21T03:37:25;8.32;;;6.47;;
11016;SDS011;54687;50.800;6.772;2023-08-21T03:39:53;7.90;;;6.10;;
11016;SDS011;54687;50.800;6.772;2023-08-21T03:42:22;6.70;;;5.90;;
11016;SDS011;54687;50.800;6.772;2023-08-21T03:44:48;7.22;;;6.50;;
11016;SDS011;54687;50.800;6.772;2023-08-21T03:47:15;7.05;;;6.15;;
11016;SDS011;54687;50.800;6.772;2023-08-21T03:49:42;6.22;;;5.63;;
11016;SDS011;54687;50.800;6.772;2023-08-21T03:52:08;6.80;;;6.18;;
11016;SDS011;54687;50.800;6.772;2023-08-21T03:54:35;6.80;;;6.18;;
11016;SDS011;54687;50.800;6.772;2023-08-21T03:57:02;8.45;;;6.47;;
11016;SDS011;54687;50.800;6.772;2023-08-21T03:59:30;7.03;;;6.40;;
11016;SDS011;54687;50.800;6.772;2023-08-21T04:01:56;6.45;;;5.85;;
11016;SDS011;54687;50.800;6.772;2023-08-21T04:04:23;6.18;;;5.65;;
11016;SDS011;54687;50.800;6.772;2023-08-21T04:06:50;6.32;;;5.60;;
11016;SDS011;54687;50.800;6.772;2023-08-21T04:09:16;6.50;;;6.00;;
11016;SDS011;54687;50.800;6.772;2023-08-21T04:11:43;7.97;;;6.68;;
11016;SDS011;54687;50.800;6.772;2023-08-21T04:14:10;6.90;;;6.13;;
11016;SDS011;54687;50.800;6.772;2023-08-21T04:16:38;7.05;;;6.20;;
11016;SDS011;54687;50.800;6.772;2023-08-21T04:19:05;8.82;;;6.05;;
11016;SDS011;54687;50.800;6.772;2023-08-21T04:21:32;7.28;;;6.32;;
11016;SDS011;54687;50.800;6.772;2023-08-21T04:23:58;7.18;;;6.57;;
11016;SDS011;54687;50.800;6.772;2023-08-21T04:26:25;9.43;;;6.60;;
11016;SDS011;54687;50.800;6.772;2023-08-21T04:28:52;7.10;;;6.38;;
11016;SDS011;54687;50.800;6.772;2023-08-21T04:31:18;7.18;;;6.47;;
11016;SDS011;54687;50.800;6.772;2023-08-21T04:33:46;7.60;;;6.15;;
11016;SDS011;54687;50.800;6.772;2023-08-21T04:36:16;6.88;;;6.28;;
11016;SDS011;54687;50.800;6.772;2023-08-21T04:38:43;8.05;;;6.50;;
11016;SDS011;54687;50.800;6.772;2023-08-21T04:41:09;6.35;;;5.75;;
11016;SDS011;54687;50.800;6.772;2023-08-21T04:43:36;7.80;;;6.60;;
11016;SDS011;54687;50.800;6.772;2023-08-21T04:46:03;8.23;;;6.30;;
11016;SDS011;54687;50.800;6.772;2023-08-21T04:48:30;6.95;;;6.25;;
11016;SDS011;54687;50.800;6.772;2023-08-21T04:50:58;7.75;;;6.05;;
11016;SDS011;54687;50.800;6.772;2023-08-21T04:53:25;7.30;;;6.60;;
11016;SDS011;54687;50.800;6.772;2023-08-21T04:55:51;6.53;;;6.03;;
11016;SDS011;54687;50.800;6.772;2023-08-21T04:58:18;7.85;;;7.05;;
11016;SDS011;54687;50.800;6.772;2023-08-21T05:00:45;8.10;;;6.63;;
11016;SDS011;54687;50.800;6.772;2023-08-21T05:03:12;10.93;;;7.45;;
11016;SDS011;54687;50.800;6.772;2023-08-21T05:05:39;11.13;;;7.15;;
11016;SDS011;54687;50.800;6.772;2023-08-21T05:08:07;9.30;;;7.28;;
11016;SDS011;54687;50.800;6.772;2023-08-21T05:10:33;8.02;;;6.45;;
11016;SDS011;54687;50.800;6.772;2023-08-21T05:13:00;6.70;;;6.10;;
11016;SDS011;54687;50.800;6.772;2023-08-21T05:15:27;7.28;;;6.57;;
11016;SDS011;54687;50.800;6.772;2023-08-21T05:17:53;9.30;;;7.68;;
11016;SDS011;54687;50.800;6.772;2023-08-21T05:20:20;7.75;;;6.95;;
11016;SDS011;54687;50.800;6.772;2023-08-21T05:22:46;9.57;;;6.43;;
11016;SDS011;54687;50.800;6.772;2023-08-21T05:25:14;7.95;;;7.18;;
11016;SDS011;54687;50.800;6.772;2023-08-21T05:27:41;8.43;;;6.25;;
11016;SDS011;54687;50.800;6.772;2023-08-21T05:30:08;7.63;;;6.00;;
11016;SDS011;54687;50.800;6.772;2023-08-21T05:32:36;6.88;;;6.18;;
11016;SDS011;54687;50.800;6.772;2023-08-21T05:35:02;8.13;;;6.38;;
11016;SDS011;54687;50.800;6.772;2023-08-21T05:37:29;6.47;;;5.80;;
11016;SDS011;54687;50.800;6.772;2023-08-21T05:39:56;7.45;;;5.63;;
11016;SDS011;54687;50.800;6.772;2023-08-21T05:42:24;7.05;;;5.68;;
11016;SDS011;54687;50.800;6.772;2023-08-21T05:44:50;7.35;;;5.88;;
11016;SDS011;54687;50.800;6.772;2023-08-21T05:47:17;8.23;;;5.70;;
11016;SDS011;54687;50.800;6.772;2023-08-21T05:49:44;6.95;;;5.97;;
11016;SDS011;54687;50.800;6.772;2023-08-21T05:52:12;5.97;;;5.38;;
11016;SDS011;54687;50.800;6.772;2023-08-21T05:54:39;8.15;;;5.70;;
11016;SDS011;54687;50.800;6.772;2023-08-21T05:57:05;8.70;;;5.97;;
11016;SDS011;54687;50.800;6.772;2023-08-21T05:59:33;7.80;;;5.28;;
11016;SDS011;54687;50.800;6.772;2023-08-21T06:02:00;8.45;;;5.47;;
11016;SDS011;54687;50.800;6.772;2023-08-21T06:04:27;10.35;;;5.93;;
11016;SDS011;54687;50.800;6.772;2023-08-21T06:06:53;9.40;;;6.00;;
11016;SDS011;54687;50.800;6.772;2023-08-21T06:09:20;8.38;;;5.65;;
11016;SDS011;54687;50.800;6.772;2023-08-21T06:11:46;9.77;;;5.63;;
11016;SDS011;54687;50.800;6.772;2023-08-21T06:14:15;10.07;;;5.80;;
11016;SDS011;54687;50.800;6.772;2023-08-21T06:16:43;7.95;;;4.90;;
11016;SDS011;54687;50.800;6.772;2023-08-21T06:19:12;9.20;;;5.70;;
11016;SDS011;54687;50.800;6.772;2023-08-21T06:21:38;13.25;;;5.40;;
11016;SDS011;54687;50.800;6.772;2023-08-21T06:24:07;11.60;;;5.32;;
11016;SDS011;54687;50.800;6.772;2023-08-21T06:26:33;8.60;;;5.15;;
11016;SDS011;54687;50.800;6.772;2023-08-21T06:29:01;13.48;;;5.72;;
11016;SDS011;54687;50.800;6.772;2023-08-21T06:31:28;11.07;;;5.10;;
11016;SDS011;54687;50.800;6.772;2023-08-21T06:33:56;12.95;;;5.55;;
11016;SDS011;54687;50.800;6.772;2023-08-21T06:36:23;9.98;;;5.13;;
11016;SDS011;54687;50.800;6.772;2023-08-21T06:38:50;9.60;;;4.75;;
11016;SDS011;54687;50.800;6.772;2023-08-21T06:41:16;10.40;;;5.18;;
11016;SDS011;54687;50.800;6.772;2023-08-21T06:43:43;12.30;;;4.70;;
11016;SDS011;54687;50.800;6.772;2023-08-21T06:46:10;15.80;;;5.72;;
11016;SDS011;54687;50.800;6.772;2023-08-21T06:48:38;11.13;;;5.45;;
11016;SDS011;54687;50.800;6.772;2023-08-21T06:51:07;9.25;;;5.72;;
11016;SDS011;54687;50.800;6.772;2023-08-21T06:53:34;13.30;;;6.30;;
11016;SDS011;54687;50.800;6.772;2023-08-21T06:56:01;10.05;;;5.00;;
11016;SDS011;54687;50.800;6.772;2023-08-21T06:58:28;11.13;;;5.97;;
11016;SDS011;54687;50.800;6.772;2023-08-21T07:00:55;11.57;;;5.47;;
11016;SDS011;54687;50.800;6.772;2023-08-21T07:03:22;11.57;;;5.03;;
11016;SDS011;54687;50.800;6.772;2023-08-21T07:05:53;12.50;;;5.63;;
11016;SDS011;54687;50.800;6.772;2023-08-21T07:08:24;8.10;;;5.38;;
11016;SDS011;54687;50.800;6.772;2023-08-21T07:10:51;7.20;;;5.43;;
11016;SDS011;54687;50.800;6.772;2023-08-21T07:13:18;11.63;;;5.65;;
11016;SDS011;54687;50.800;6.772;2023-08-21T07:15:45;16.45;;;6.88;;
11016;SDS011;54687;50.800;6.772;2023-08-21T07:18:13;16.90;;;6.63;;
11016;SDS011;54687;50.800;6.772;2023-08-21T07:20:40;14.35;;;6.15;;
11016;SDS011;54687;50.800;6.772;2023-08-21T07:23:10;9.98;;;5.22;;
11016;SDS011;54687;50.800;6.772;2023-08-21T07:25:38;16.33;;;7.35;;
11016;SDS011;54687;50.800;6.772;2023-08-21T07:28:05;12.13;;;8.05;;
11016;SDS011;54687;50.800;6.772;2023-08-21T07:30:31;15.05;;;7.90;;
11016;SDS011;54687;50.800;6.772;2023-08-21T07:32:58;12.77;;;7.43;;
11016;SDS011;54687;50.800;6.772;2023-08-21T07:35:25;10.55;;;7.32;;
11016;SDS011;54687;50.800;6.772;2023-08-21T07:37:52;16.90;;;8.05;;
11016;SDS011;54687;50.800;6.772;2023-08-21T07:40:18;10.82;;;7.00;;
11016;SDS011;54687;50.800;6.772;2023-08-21T07:42:47;17.95;;;8.68;;
11016;SDS011;54687;50.800;6.772;2023-08-21T07:45:14;16.27;;;8.90;;
11016;SDS011;54687;50.800;6.772;2023-08-21T07:47:40;14.10;;;7.82;;
11016;SDS011;54687;50.800;6.772;2023-08-21T07:50:07;11.35;;;8.77;;
11016;SDS011;54687;50.800;6.772;2023-08-21T07:52:35;20.25;;;9.48;;
11016;SDS011;54687;50.800;6.772;2023-08-21T07:55:03;15.77;;;8.35;;
11016;SDS011;54687;50.800;6.772;2023-08-21T07:57:30;9.95;;;8.00;;
11016;SDS011;54687;50.800;6.772;2023-08-21T07:59:58;17.63;;;8.82;;
11016;SDS011;54687;50.800;6.772;2023-08-21T08:02:25;14.32;;;7.90;;
11016;SDS011;54687;50.800;6.772;2023-08-21T08:04:51;16.27;;;9.65;;
11016;SDS011;54687;50.800;6.772;2023-08-21T08:07:18;15.48;;;10.68;;
11016;SDS011;54687;50.800;6.772;2023-08-21T08:09:45;11.00;;;9.73;;
11016;SDS011;54687;50.800;6.772;2023-08-21T08:12:12;10.95;;;8.65;;
11016;SDS011;54687;50.800;6.772;2023-08-21T08:14:40;11.32;;;8.13;;
11016;SDS011;54687;50.800;6.772;2023-08-21T08:17:08;14.15;;;9.20;;
11016;SDS011;54687;50.800;6.772;2023-08-21T08:19:35;9.25;;;7.68;;
11016;SDS011;54687;50.800;6.772;2023-08-21T08:22:03;12.55;;;8.75;;
11016;SDS011;54687;50.800;6.772;2023-08-21T08:24:29;13.77;;;9.32;;
11016;SDS011;54687;50.800;6.772;2023-08-21T08:26:58;10.30;;;9.25;;
11016;SDS011;54687;50.800;6.772;2023-08-21T08:29:24;12.23;;;9.05;;
11016;SDS011;54687;50.800;6.772;2023-08-21T08:31:51;12.95;;;10.05;;
11016;SDS011;54687;50.800;6.772;2023-08-21T08:34:20;19.42;;;12.20;;
11016;SDS011;54687;50.800;6.772;2023-08-21T08:36:46;14.10;;;9.30;;
11016;SDS011;54687;50.800;6.772;2023-08-21T08:39:13;15.82;;;11.10;;
11016;SDS011;54687;50.800;6.772;2023-08-21T08:41:43;20.45;;;10.80;;
11016;SDS011;54687;50.800;6.772;2023-08-21T08:44:17;15.13;;;10.20;;
11016;SDS011;54687;50.800;6.772;2023-08-21T08:46:44;16.52;;;10.25;;
11016;SDS011;54687;50.800;6.772;2023-08-21T08:49:11;16.55;;;11.15;;
11016;SDS011;54687;50.800;6.772;2023-08-21T08:51:39;13.23;;;8.20;;
11016;SDS011;54687;50.800;6.772;2023-08-21T08:54:09;13.65;;;9.52;;
11016;SDS011;54687;50.800;6.772;2023-08-21T08:56:38;13.95;;;9.13;;
11016;SDS011;54687;50.800;6.772;2023-08-21T08:59:05;14.85;;;9.07;;
11016;SDS011;54687;50.800;6.772;2023-08-21T09:01:34;13.88;;;10.43;;
11016;SDS011;54687;50.800;6.772;2023-08-21T09:04:01;12.13;;;9.80;;
11016;SDS011;54687;50.800;6.772;2023-08-21T09:06:27;12.35;;;8.75;;
11016;SDS011;54687;50.800;6.772;2023-08-21T09:08:56;9.85;;;8.27;;
11016;SDS011;54687;50.800;6.772;2023-08-21T09:11:23;13.15;;;8.55;;
11016;SDS011;54687;50.800;6.772;2023-08-21T09:13:51;13.90;;;9.18;;
11016;SDS011;54687;50.800;6.772;2023-08-21T09:16:18;13.38;;;8.65;;
11016;SDS011;54687;50.800;6.772;2023-08-21T09:18:48;15.77;;;8.95;;
11016;SDS011;54687;50.800;6.772;2023-08-21T09:21:16;18.73;;;9.98;;
11016;SDS011;54687;50.800;6.772;2023-08-21T09:23:43;13.45;;;8.20;;
11016;SDS011;54687;50.800;6.772;2023-08-21T09:26:12;16.35;;;9.27;;
11016;SDS011;54687;50.800;6.772;2023-08-21T09:28:45;9.20;;;7.75;;
11016;SDS011;54687;50.800;6.772;2023-08-21T09:31:12;11.38;;;8.00;;
11016;SDS011;54687;50.800;6.772;2023-08-21T09:33:39;10.10;;;8.38;;
11016;SDS011;54687;50.800;6.772;2023-08-21T09:36:08;17.95;;;10.80;;
11016;SDS011;54687;50.800;6.772;2023-08-21T09:38:38;16.35;;;10.73;;
11016;SDS011;54687;50.800;6.772;2023-08-21T09:41:05;11.65;;;8.70;;
11016;SDS011;54687;50.800;6.772;2023-08-21T09:43:37;11.95;;;9.43;;
11016;SDS011;54687;50.800;6.772;2023-08-21T09:46:08;13.00;;;9.40;;
11016;SDS011;54687;50.800;6.772;2023-08-21T09:48:35;11.50;;;8.40;;
11016;SDS011;54687;50.800;6.772;2023-08-21T09:51:03;19.60;;;9.32;;
11016;SDS011;54687;50.800;6.772;2023-08-21T09:53:30;11.85;;;8.52;;
11016;SDS011;54687;50.800;6.772;2023-08-21T09:55:57;12.32;;;9.38;;
11016;SDS011;54687;50.800;6.772;2023-08-21T09:58:30;11.00;;;8.65;;
11016;SDS011;54687;50.800;6.772;2023-08-21T10:00:58;15.40;;;8.70;;
11016;SDS011;54687;50.800;6.772;2023-08-21T10:03:26;9.85;;;8.25;;
11016;SDS011;54687;50.800;6.772;2023-08-21T10:05:53;13.38;;;8.27;;
11016;SDS011;54687;50.800;6.772;2023-08-21T10:08:23;12.07;;;8.60;;
11016;SDS011;54687;50.800;6.772;2023-08-21T10:10:51;10.35;;;7.82;;
11016;SDS011;54687;50.800;6.772;2023-08-21T10:13:18;13.57;;;8.30;;
11016;SDS011;54687;50.800;6.772;2023-08-21T10:15:46;10.70;;;8.40;;
11016;SDS011;54687;50.800;6.772;2023-08-21T10:18:18;11.82;;;8.85;;
11016;SDS011;54687;50.800;6.772;2023-08-21T10:20:47;11.90;;;9.45;;
11016;SDS011;54687;50.800;6.772;2023-08-21T10:23:23;12.00;;;8.80;;
11016;SDS011;54687;50.800;6.772;2023-08-21T10:25:55;13.55;;;9.85;;
11016;SDS011;54687;50.800;6.772;2023-08-21T10:28:22;10.63;;;8.02;;
11016;SDS011;54687;50.800;6.772;2023-08-21T10:30:48;10.82;;;7.38;;
11016;SDS011;54687;50.800;6.772;2023-08-21T10:33:16;14.13;;;8.55;;
11016;SDS011;54687;50.800;6.772;2023-08-21T10:35:45;9.25;;;7.40;;
11016;SDS011;54687;50.800;6.772;2023-08-21T10:38:12;11.57;;;8.82;;
11016;SDS011;54687;50.800;6.772;2023-08-21T10:40:41;12.77;;;10.27;;
11016;SDS011;54687;50.800;6.772;2023-08-21T10:43:37;11.85;;;8.63;;
11016;SDS011;54687;50.800;6.772;2023-08-21T10:46:06;11.40;;;8.25;;
11016;SDS011;54687;50.800;6.772;2023-08-21T10:48:33;8.38;;;7.38;;
11016;SDS011;54687;50.800;6.772;2023-08-21T10:51:02;12.50;;;8.27;;
11016;SDS011;54687;50.800;6.772;2023-08-21T10:53:30;10.18;;;7.57;;
11016;SDS011;54687;50.800;6.772;2023-08-21T10:56:00;9.85;;;8.20;;
11016;SDS011;54687;50.800;6.772;2023-08-21T10:58:28;10.45;;;9.05;;
11016;SDS011;54687;50.800;6.772;2023-08-21T11:00:58;9.30;;;8.05;;
11016;SDS011;54687;50.800;6.772;2023-08-21T11:03:25;10.38;;;7.88;;
11016;SDS011;54687;50.800;6.772;2023-08-21T11:06:03;9.38;;;7.57;;
11016;SDS011;54687;50.800;6.772;2023-08-21T11:08:31;11.75;;;7.93;;
11016;SDS011;54687;50.800;6.772;2023-08-21T11:10:58;8.25;;;7.45;;
11016;SDS011;54687;50.800;6.772;2023-08-21T11:13:25;11.18;;;8.07;;
11016;SDS011;54687;50.800;6.772;2023-08-21T11:15:58;10.50;;;7.82;;
11016;SDS011;54687;50.800;6.772;2023-08-21T11:18:29;10.38;;;7.10;;
11016;SDS011;54687;50.800;6.772;2023-08-21T11:21:04;13.18;;;7.75;;
11016;SDS011;54687;50.800;6.772;2023-08-21T11:23:32;11.05;;;7.95;;
11016;SDS011;54687;50.800;6.772;2023-08-21T11:26:00;11.63;;;7.03;;
11016;SDS011;54687;50.800;6.772;2023-08-21T11:28:28;11.88;;;8.73;;
11016;SDS011;54687;50.800;6.772;2023-08-21T11:30:55;8.50;;;6.90;;
11016;SDS011;54687;50.800;6.772;2023-08-21T11:33:23;13.00;;;7.10;;
11016;SDS011;54687;50.800;6.772;2023-08-21T11:35:52;10.43;;;6.70;;
11016;SDS011;54687;50.800;6.772;2023-08-21T11:38:21;12.77;;;8.00;;
11016;SDS011;54687;50.800;6.772;2023-08-21T11:40:56;11.68;;;8.95;;
11016;SDS011;54687;50.800;6.772;2023-08-21T11:43:33;11.82;;;8.77;;
11016;SDS011;54687;50.800;6.772;2023-08-21T11:46:01;12.05;;;8.07;;
11016;SDS011;54687;50.800;6.772;2023-08-21T11:48:28;10.68;;;8.68;;
11016;SDS011;54687;50.800;6.772;2023-08-21T11:50:55;8.07;;;6.95;;
11016;SDS011;54687;50.800;6.772;2023-08-21T11:53:31;10.95;;;7.65;;
11016;SDS011;54687;50.800;6.772;2023-08-21T11:55:59;13.73;;;7.70;;
11016;SDS011;54687;50.800;6.772;2023-08-21T11:58:26;14.15;;;7.78;;
11016;SDS011;54687;50.800;6.772;2023-08-21T12:00:52;9.93;;;8.82;;
11016;SDS011;54687;50.800;6.772;2023-08-21T12:03:19;15.98;;;8.60;;
11016;SDS011;54687;50.800;6.772;2023-08-21T12:05:46;20.92;;;8.55;;
11016;SDS011;54687;50.800;6.772;2023-08-21T12:08:12;9.30;;;8.40;;
11016;SDS011;54687;50.800;6.772;2023-08-21T12:10:40;31.50;;;10.75;;
11016;SDS011;54687;50.800;6.772;2023-08-21T12:13:07;7.60;;;6.63;;
11016;SDS011;54687;50.800;6.772;2023-08-21T12:15:33;11.27;;;7.50;;
11016;SDS011;54687;50.800;6.772;2023-08-21T12:18:00;9.57;;;7.05;;
11016;SDS011;54687;50.800;6.772;2023-08-21T12:20:27;10.00;;;7.25;;
11016;SDS011;54687;50.800;6.772;2023-08-21T12:22:55;8.70;;;6.63;;
11016;SDS011;54687;50.800;6.772;2023-08-21T12:25:22;12.70;;;7.72;;
11016;SDS011;54687;50.800;6.772;2023-08-21T12:27:50;9.35;;;6.72;;
11016;SDS011;54687;50.800;6.772;2023-08-21T12:30:17;8.75;;;6.68;;
11016;SDS011;54687;50.800;6.772;2023-08-21T12:32:44;7.45;;;5.22;;
11016;SDS011;54687;50.800;6.772;2023-08-21T12:35:11;7.78;;;5.07;;
11016;SDS011;54687;50.800;6.772;2023-08-21T12:37:38;14.93;;;5.68;;
11016;SDS011;54687;50.800;6.772;2023-08-21T12:40:06;6.57;;;5.13;;
11016;SDS011;54687;50.800;6.772;2023-08-21T12:42:35;6.88;;;4.57;;
11016;SDS011;54687;50.800;6.772;2023-08-21T12:45:03;6.93;;;5.25;;
11016;SDS011;54687;50.800;6.772;2023-08-21T12:47:30;8.13;;;4.80;;
11016;SDS011;54687;50.800;6.772;2023-08-21T12:49:58;8.73;;;5.25;;
11016;SDS011;54687;50.800;6.772;2023-08-21T12:52:24;10.85;;;4.50;;
11016;SDS011;54687;50.800;6.772;2023-08-21T12:54:51;9.65;;;4.22;;
11016;SDS011;54687;50.800;6.772;2023-08-21T12:57:17;10.23;;;4.55;;
11016;SDS011;54687;50.800;6.772;2023-08-21T12:59:44;8.18;;;4.43;;
11016;SDS011;54687;50.800;6.772;2023-08-21T13:02:12;7.85;;;4.30;;
11016;SDS011;54687;50.800;6.772;2023-08-21T13:04:38;4.93;;;3.08;;
11016;SDS011;54687;50.800;6.772;2023-08-21T13:07:05;9.43;;;3.60;;
11016;SDS011;54687;50.800;6.772;2023-08-21T13:09:31;8.57;;;4.45;;
11016;SDS011;54687;50.800;6.772;2023-08-21T13:11:58;10.93;;;4.75;;
11016;SDS011;54687;50.800;6.772;2023-08-21T13:14:25;8.43;;;4.45;;
11016;SDS011;54687;50.800;6.772;2023-08-21T13:16:52;7.53;;;4.43;;
11016;SDS011;54687;50.800;6.772;2023-08-21T13:19:20;6.78;;;4.07;;
11016;SDS011;54687;50.800;6.772;2023-08-21T13:21:47;4.80;;;3.65;;
11016;SDS011;54687;50.800;6.772;2023-08-21T13:24:14;5.75;;;3.33;;
11016;SDS011;54687;50.800;6.772;2023-08-21T13:26:40;7.90;;;4.03;;
11016;SDS011;54687;50.800;6.772;2023-08-21T13:29:07;4.35;;;3.20;;
11016;SDS011;54687;50.800;6.772;2023-08-21T13:31:34;6.28;;;3.28;;
11016;SDS011;54687;50.800;6.772;2023-08-21T13:34:01;8.68;;;3.88;;
11016;SDS011;54687;50.800;6.772;2023-08-21T13:36:29;6.70;;;3.38;;
11016;SDS011;54687;50.800;6.772;2023-08-21T13:38:56;7.20;;;3.70;;
11016;SDS011;54687;50.800;6.772;2023-08-21T13:41:23;10.82;;;3.25;;
11016;SDS011;54687;50.800;6.772;2023-08-21T13:43:49;6.57;;;3.15;;
11016;SDS011;54687;50.800;6.772;2023-08-21T13:46:16;4.45;;;2.80;;
11016;SDS011;54687;50.800;6.772;2023-08-21T13:48:43;6.95;;;3.17;;
11016;SDS011;54687;50.800;6.772;2023-08-21T13:51:10;6.47;;;3.33;;
11016;SDS011;54687;50.800;6.772;2023-08-21T13:53:38;5.93;;;3.38;;
11016;SDS011;54687;50.800;6.772;2023-08-21T13:56:04;3.97;;;3.13;;
11016;SDS011;54687;50.800;6.772;2023-08-21T13:58:31;6.63;;;2.83;;
11016;SDS011;54687;50.800;6.772;2023-08-21T14:00:58;3.67;;;2.83;;
11016;SDS011;54687;50.800;6.772;2023-08-21T14:03:24;6.68;;;4.07;;
11016;SDS011;54687;50.800;6.772;2023-08-21T14:05:51;12.40;;;4.35;;
11016;SDS011;54687;50.800;6.772;2023-08-21T14:08:17;7.70;;;4.10;;
11016;SDS011;54687;50.800;6.772;2023-08-21T14:10:45;9.88;;;4.32;;
11016;SDS011;54687;50.800;6.772;2023-08-21T14:13:12;8.45;;;4.15;;
11016;SDS011;54687;50.800;6.772;2023-08-21T14:15:38;12.15;;;4.35;;
11016;SDS011;54687;50.800;6.772;2023-08-21T14:18:05;6.05;;;4.05;;
11016;SDS011;54687;50.800;6.772;2023-08-21T14:20:32;7.78;;;4.05;;
11016;SDS011;54687;50.800;6.772;2023-08-21T14:22:59;5.60;;;3.75;;
11016;SDS011;54687;50.800;6.772;2023-08-21T14:25:26;5.75;;;3.20;;
11016;SDS011;54687;50.800;6.772;2023-08-21T14:27:55;10.52;;;3.00;;
11016;SDS011;54687;50.800;6.772;2023-08-21T14:30:21;7.15;;;3.50;;
11016;SDS011;54687;50.800;6.772;2023-08-21T14:32:48;6.68;;;3.55;;
11016;SDS011;54687;50.800;6.772;2023-08-21T14:35:14;6.75;;;3.47;;
11016;SDS011;54687;50.800;6.772;2023-08-21T14:37:41;8.55;;;3.90;;
11016;SDS011;54687;50.800;6.772;2023-08-21T14:40:08;8.77;;;2.92;;
11016;SDS011;54687;50.800;6.772;2023-08-21T14:42:35;4.00;;;2.90;;
11016;SDS011;54687;50.800;6.772;2023-08-21T14:45:04;7.32;;;3.38;;